Waunakee, Wisconsin
Current Conditions -  °F | °C
As of 1:35 AM on Saturday 29 Nov 2014 (Local Time) from KC29 Reporting Station
Clear Clear  
Wind Chill: 23°   Ceiling: Unl
Heat Index: 31°   Visibility: 5mi
Dew Point: 30°   Wind: 8mph
Humidity: 96%   Direction: 130°SE
Pressure: 29.74"   Gusts: NA
Location:  43.19°N, 89.46°W
Report Text: KC29 290735Z AUTO 13007KT 5SM CLR M01/M01 A2974 RMK AO1 T10071013
Loading
Personal Weather Stations






























Interactive Weather Map New forecast layout! Learn more

10-Day Weather Forecast

Advertisements
Track Severe Weather on mobile